sensor_id;sensor_type;location;lat;lon;timestamp;P1;durP1;ratioP1;P2;durP2;ratioP2
54815;SDS011;40715;55.752;37.884;2022-07-04T00:00:49;6.47;;;3.78;;
54815;SDS011;40715;55.752;37.884;2022-07-04T00:03:16;11.13;;;4.35;;
54815;SDS011;40715;55.752;37.884;2022-07-04T00:05:43;8.38;;;4.45;;
54815;SDS011;40715;55.752;37.884;2022-07-04T00:08:10;9.65;;;4.13;;
54815;SDS011;40715;55.752;37.884;2022-07-04T00:10:37;8.93;;;4.15;;
54815;SDS011;40715;55.752;37.884;2022-07-04T00:13:05;9.65;;;4.25;;
54815;SDS011;40715;55.752;37.884;2022-07-04T00:15:32;11.07;;;4.63;;
54815;SDS011;40715;55.752;37.884;2022-07-04T00:17:59;9.80;;;4.00;;
54815;SDS011;40715;55.752;37.884;2022-07-04T00:20:26;10.52;;;4.20;;
54815;SDS011;40715;55.752;37.884;2022-07-04T00:22:53;9.20;;;4.40;;
54815;SDS011;40715;55.752;37.884;2022-07-04T00:25:20;9.70;;;4.10;;
54815;SDS011;40715;55.752;37.884;2022-07-04T00:27:47;7.82;;;3.85;;
54815;SDS011;40715;55.752;37.884;2022-07-04T00:30:14;8.55;;;4.45;;
54815;SDS011;40715;55.752;37.884;2022-07-04T00:32:41;10.85;;;3.97;;
54815;SDS011;40715;55.752;37.884;2022-07-04T00:35:08;7.47;;;3.45;;
54815;SDS011;40715;55.752;37.884;2022-07-04T00:37:35;8.23;;;3.97;;
54815;SDS011;40715;55.752;37.884;2022-07-04T00:40:02;8.00;;;4.20;;
54815;SDS011;40715;55.752;37.884;2022-07-04T00:42:29;8.85;;;3.97;;
54815;SDS011;40715;55.752;37.884;2022-07-04T00:44:56;7.18;;;3.97;;
54815;SDS011;40715;55.752;37.884;2022-07-04T00:47:23;11.30;;;4.00;;
54815;SDS011;40715;55.752;37.884;2022-07-04T00:49:50;6.72;;;3.80;;
54815;SDS011;40715;55.752;37.884;2022-07-04T00:52:17;7.13;;;3.67;;
54815;SDS011;40715;55.752;37.884;2022-07-04T00:54:45;8.35;;;3.85;;
54815;SDS011;40715;55.752;37.884;2022-07-04T00:57:13;6.32;;;4.07;;
54815;SDS011;40715;55.752;37.884;2022-07-04T00:59:40;7.45;;;3.67;;
54815;SDS011;40715;55.752;37.884;2022-07-04T01:02:08;7.22;;;3.72;;
54815;SDS011;40715;55.752;37.884;2022-07-04T01:04:35;6.47;;;4.03;;
54815;SDS011;40715;55.752;37.884;2022-07-04T01:07:03;7.22;;;3.72;;
54815;SDS011;40715;55.752;37.884;2022-07-04T01:09:31;6.55;;;3.63;;
54815;SDS011;40715;55.752;37.884;2022-07-04T01:11:59;8.30;;;4.20;;
54815;SDS011;40715;55.752;37.884;2022-07-04T01:14:26;8.48;;;4.22;;
54815;SDS011;40715;55.752;37.884;2022-07-04T01:16:53;10.13;;;4.07;;
54815;SDS011;40715;55.752;37.884;2022-07-04T01:19:20;11.25;;;4.70;;
54815;SDS011;40715;55.752;37.884;2022-07-04T01:21:47;11.38;;;4.38;;
54815;SDS011;40715;55.752;37.884;2022-07-04T01:24:14;12.02;;;4.35;;
54815;SDS011;40715;55.752;37.884;2022-07-04T01:26:41;16.08;;;4.85;;
54815;SDS011;40715;55.752;37.884;2022-07-04T01:29:08;7.75;;;4.13;;
54815;SDS011;40715;55.752;37.884;2022-07-04T01:31:35;13.95;;;4.60;;
54815;SDS011;40715;55.752;37.884;2022-07-04T01:34:02;10.05;;;4.45;;
54815;SDS011;40715;55.752;37.884;2022-07-04T01:36:29;7.93;;;4.50;;
54815;SDS011;40715;55.752;37.884;2022-07-04T01:38:56;12.65;;;4.63;;
54815;SDS011;40715;55.752;37.884;2022-07-04T01:41:24;11.25;;;4.50;;
54815;SDS011;40715;55.752;37.884;2022-07-04T01:43:51;10.32;;;5.68;;
54815;SDS011;40715;55.752;37.884;2022-07-04T01:46:18;8.68;;;4.45;;
54815;SDS011;40715;55.752;37.884;2022-07-04T01:48:45;8.10;;;3.97;;
54815;SDS011;40715;55.752;37.884;2022-07-04T01:51:11;7.30;;;4.55;;
54815;SDS011;40715;55.752;37.884;2022-07-04T01:53:38;6.22;;;4.47;;
54815;SDS011;40715;55.752;37.884;2022-07-04T01:56:05;13.50;;;5.25;;
54815;SDS011;40715;55.752;37.884;2022-07-04T01:58:32;12.63;;;5.20;;
54815;SDS011;40715;55.752;37.884;2022-07-04T02:01:00;10.15;;;4.78;;
54815;SDS011;40715;55.752;37.884;2022-07-04T02:03:46;10.32;;;5.40;;
54815;SDS011;40715;55.752;37.884;2022-07-04T02:06:13;9.82;;;5.40;;
54815;SDS011;40715;55.752;37.884;2022-07-04T02:08:40;24.92;;;6.28;;
54815;SDS011;40715;55.752;37.884;2022-07-04T02:11:25;16.02;;;5.40;;
54815;SDS011;40715;55.752;37.884;2022-07-04T02:13:52;14.90;;;5.75;;
54815;SDS011;40715;55.752;37.884;2022-07-04T02:16:39;19.35;;;6.25;;
54815;SDS011;40715;55.752;37.884;2022-07-04T02:19:06;11.35;;;5.57;;
54815;SDS011;40715;55.752;37.884;2022-07-04T02:21:33;12.93;;;5.53;;
54815;SDS011;40715;55.752;37.884;2022-07-04T02:24:00;12.23;;;5.65;;
54815;SDS011;40715;55.752;37.884;2022-07-04T02:26:27;11.85;;;5.28;;
54815;SDS011;40715;55.752;37.884;2022-07-04T02:28:54;17.55;;;5.90;;
54815;SDS011;40715;55.752;37.884;2022-07-04T02:31:21;11.85;;;5.25;;
54815;SDS011;40715;55.752;37.884;2022-07-04T02:33:48;12.30;;;5.20;;
54815;SDS011;40715;55.752;37.884;2022-07-04T02:36:15;14.10;;;5.70;;
54815;SDS011;40715;55.752;37.884;2022-07-04T02:38:42;14.98;;;5.55;;
54815;SDS011;40715;55.752;37.884;2022-07-04T02:41:09;14.48;;;5.63;;
54815;SDS011;40715;55.752;37.884;2022-07-04T02:43:36;15.07;;;6.47;;
54815;SDS011;40715;55.752;37.884;2022-07-04T02:46:03;14.05;;;5.65;;
54815;SDS011;40715;55.752;37.884;2022-07-04T02:48:30;12.43;;;5.68;;
54815;SDS011;40715;55.752;37.884;2022-07-04T02:51:01;8.93;;;5.30;;
54815;SDS011;40715;55.752;37.884;2022-07-04T02:53:28;9.13;;;5.32;;
54815;SDS011;40715;55.752;37.884;2022-07-04T02:55:55;19.23;;;5.88;;
54815;SDS011;40715;55.752;37.884;2022-07-04T02:58:22;13.20;;;5.93;;
54815;SDS011;40715;55.752;37.884;2022-07-04T03:00:49;12.95;;;5.15;;
54815;SDS011;40715;55.752;37.884;2022-07-04T03:03:16;12.93;;;5.80;;
54815;SDS011;40715;55.752;37.884;2022-07-04T03:05:43;11.45;;;5.13;;
54815;SDS011;40715;55.752;37.884;2022-07-04T03:08:10;10.68;;;5.43;;
54815;SDS011;40715;55.752;37.884;2022-07-04T03:10:37;8.75;;;5.15;;
54815;SDS011;40715;55.752;37.884;2022-07-04T03:13:04;8.88;;;5.10;;
54815;SDS011;40715;55.752;37.884;2022-07-04T03:15:33;9.30;;;5.30;;
54815;SDS011;40715;55.752;37.884;2022-07-04T03:18:00;9.02;;;4.90;;
54815;SDS011;40715;55.752;37.884;2022-07-04T03:20:27;7.45;;;5.50;;
54815;SDS011;40715;55.752;37.884;2022-07-04T03:22:54;8.40;;;5.38;;
54815;SDS011;40715;55.752;37.884;2022-07-04T03:25:21;8.00;;;5.10;;
54815;SDS011;40715;55.752;37.884;2022-07-04T03:27:49;8.65;;;5.28;;
54815;SDS011;40715;55.752;37.884;2022-07-04T03:30:16;7.45;;;5.28;;
54815;SDS011;40715;55.752;37.884;2022-07-04T03:32:43;8.05;;;5.20;;
54815;SDS011;40715;55.752;37.884;2022-07-04T03:35:10;8.48;;;5.10;;
54815;SDS011;40715;55.752;37.884;2022-07-04T03:37:37;8.95;;;5.10;;
54815;SDS011;40715;55.752;37.884;2022-07-04T03:40:04;9.52;;;5.20;;
54815;SDS011;40715;55.752;37.884;2022-07-04T03:42:32;8.75;;;5.40;;
54815;SDS011;40715;55.752;37.884;2022-07-04T03:44:59;11.68;;;6.53;;
54815;SDS011;40715;55.752;37.884;2022-07-04T03:47:26;12.73;;;6.00;;
54815;SDS011;40715;55.752;37.884;2022-07-04T03:49:53;12.50;;;5.68;;
54815;SDS011;40715;55.752;37.884;2022-07-04T03:52:19;12.38;;;6.28;;
54815;SDS011;40715;55.752;37.884;2022-07-04T03:54:46;8.30;;;5.20;;
54815;SDS011;40715;55.752;37.884;2022-07-04T03:57:14;12.20;;;5.70;;
54815;SDS011;40715;55.752;37.884;2022-07-04T03:59:41;10.80;;;6.28;;
54815;SDS011;40715;55.752;37.884;2022-07-04T04:02:08;12.05;;;5.57;;
54815;SDS011;40715;55.752;37.884;2022-07-04T04:04:35;11.23;;;6.03;;
54815;SDS011;40715;55.752;37.884;2022-07-04T04:07:20;8.15;;;5.53;;
54815;SDS011;40715;55.752;37.884;2022-07-04T04:09:47;7.28;;;5.47;;
54815;SDS011;40715;55.752;37.884;2022-07-04T04:12:14;8.65;;;5.38;;
54815;SDS011;40715;55.752;37.884;2022-07-04T04:14:41;5.97;;;5.05;;
54815;SDS011;40715;55.752;37.884;2022-07-04T04:17:08;6.63;;;4.40;;
54815;SDS011;40715;55.752;37.884;2022-07-04T04:19:35;2.33;;;1.65;;
54815;SDS011;40715;55.752;37.884;2022-07-04T04:22:02;0.75;;;0.75;;
54815;SDS011;40715;55.752;37.884;2022-07-04T04:24:29;0.35;;;0.30;;
54815;SDS011;40715;55.752;37.884;2022-07-04T04:26:57;0.30;;;0.30;;
54815;SDS011;40715;55.752;37.884;2022-07-04T04:29:24;0.30;;;0.30;;
54815;SDS011;40715;55.752;37.884;2022-07-04T04:31:51;0.30;;;0.30;;
54815;SDS011;40715;55.752;37.884;2022-07-04T04:34:18;0.47;;;0.47;;
54815;SDS011;40715;55.752;37.884;2022-07-04T04:36:45;0.40;;;0.40;;
54815;SDS011;40715;55.752;37.884;2022-07-04T04:39:12;0.60;;;0.60;;
54815;SDS011;40715;55.752;37.884;2022-07-04T04:41:40;0.60;;;0.60;;
54815;SDS011;40715;55.752;37.884;2022-07-04T04:44:07;0.60;;;0.60;;
54815;SDS011;40715;55.752;37.884;2022-07-04T04:46:34;0.80;;;0.80;;
54815;SDS011;40715;55.752;37.884;2022-07-04T04:49:01;0.80;;;0.80;;
54815;SDS011;40715;55.752;37.884;2022-07-04T04:51:27;1.00;;;1.00;;
54815;SDS011;40715;55.752;37.884;2022-07-04T04:53:54;1.10;;;1.10;;
54815;SDS011;40715;55.752;37.884;2022-07-04T04:56:21;1.10;;;1.10;;
54815;SDS011;40715;55.752;37.884;2022-07-04T04:58:48;1.20;;;1.20;;
54815;SDS011;40715;55.752;37.884;2022-07-04T05:01:15;1.30;;;1.30;;
54815;SDS011;40715;55.752;37.884;2022-07-04T05:04:02;1.40;;;1.40;;
54815;SDS011;40715;55.752;37.884;2022-07-04T05:06:29;1.70;;;1.70;;
54815;SDS011;40715;55.752;37.884;2022-07-04T05:08:56;1.70;;;1.70;;
54815;SDS011;40715;55.752;37.884;2022-07-04T05:11:23;1.80;;;1.80;;
54815;SDS011;40715;55.752;37.884;2022-07-04T05:13:50;1.80;;;1.80;;
54815;SDS011;40715;55.752;37.884;2022-07-04T05:16:17;1.90;;;1.90;;
54815;SDS011;40715;55.752;37.884;2022-07-04T05:18:44;1.90;;;1.90;;
54815;SDS011;40715;55.752;37.884;2022-07-04T05:21:11;2.00;;;2.00;;
54815;SDS011;40715;55.752;37.884;2022-07-04T05:23:38;2.40;;;2.30;;
54815;SDS011;40715;55.752;37.884;2022-07-04T05:26:05;2.60;;;2.50;;
54815;SDS011;40715;55.752;37.884;2022-07-04T05:28:32;2.80;;;2.70;;
54815;SDS011;40715;55.752;37.884;2022-07-04T05:30:59;2.95;;;2.85;;
54815;SDS011;40715;55.752;37.884;2022-07-04T05:33:26;2.90;;;2.80;;
54815;SDS011;40715;55.752;37.884;2022-07-04T05:35:53;3.20;;;3.10;;
54815;SDS011;40715;55.752;37.884;2022-07-04T05:38:20;3.50;;;3.40;;
54815;SDS011;40715;55.752;37.884;2022-07-04T05:40:47;3.70;;;3.60;;
54815;SDS011;40715;55.752;37.884;2022-07-04T05:43:15;4.10;;;4.00;;
54815;SDS011;40715;55.752;37.884;2022-07-04T05:45:42;4.20;;;4.05;;
54815;SDS011;40715;55.752;37.884;2022-07-04T05:48:09;4.40;;;4.20;;
54815;SDS011;40715;55.752;37.884;2022-07-04T05:50:36;4.88;;;4.68;;
54815;SDS011;40715;55.752;37.884;2022-07-04T05:53:03;5.00;;;4.80;;
54815;SDS011;40715;55.752;37.884;2022-07-04T05:55:30;5.30;;;5.10;;
54815;SDS011;40715;55.752;37.884;2022-07-04T05:57:57;5.65;;;5.45;;
54815;SDS011;40715;55.752;37.884;2022-07-04T06:00:24;5.72;;;5.53;;
54815;SDS011;40715;55.752;37.884;2022-07-04T06:02:51;5.65;;;5.45;;
54815;SDS011;40715;55.752;37.884;2022-07-04T06:05:18;6.07;;;5.88;;
54815;SDS011;40715;55.752;37.884;2022-07-04T06:07:45;6.60;;;6.30;;
54815;SDS011;40715;55.752;37.884;2022-07-04T06:10:14;6.60;;;6.30;;
54815;SDS011;40715;55.752;37.884;2022-07-04T06:12:41;6.82;;;6.53;;
54815;SDS011;40715;55.752;37.884;2022-07-04T06:15:08;7.07;;;6.78;;
54815;SDS011;40715;55.752;37.884;2022-07-04T06:17:36;8.20;;;7.85;;
54815;SDS011;40715;55.752;37.884;2022-07-04T06:20:04;8.63;;;8.23;;
54815;SDS011;40715;55.752;37.884;2022-07-04T06:22:42;9.50;;;9.10;;
54815;SDS011;40715;55.752;37.884;2022-07-04T06:25:14;9.60;;;9.20;;
54815;SDS011;40715;55.752;37.884;2022-07-04T06:27:44;10.00;;;9.60;;
54815;SDS011;40715;55.752;37.884;2022-07-04T06:30:12;11.13;;;10.63;;
54815;SDS011;40715;55.752;37.884;2022-07-04T06:32:47;11.35;;;10.85;;
54815;SDS011;40715;55.752;37.884;2022-07-04T06:35:31;12.15;;;11.65;;
54815;SDS011;40715;55.752;37.884;2022-07-04T06:38:18;12.82;;;12.23;;
54815;SDS011;40715;55.752;37.884;2022-07-04T06:40:46;13.18;;;12.57;;
54815;SDS011;40715;55.752;37.884;2022-07-04T06:43:16;15.32;;;14.63;;
54815;SDS011;40715;55.752;37.884;2022-07-04T06:45:43;13.48;;;12.88;;
54815;SDS011;40715;55.752;37.884;2022-07-04T06:48:10;9.75;;;9.35;;
54815;SDS011;40715;55.752;37.884;2022-07-04T06:50:42;8.52;;;8.13;;
54815;SDS011;40715;55.752;37.884;2022-07-04T06:53:09;7.05;;;6.75;;
54815;SDS011;40715;55.752;37.884;2022-07-04T06:55:40;7.60;;;7.30;;
54815;SDS011;40715;55.752;37.884;2022-07-04T06:58:09;6.63;;;6.32;;
54815;SDS011;40715;55.752;37.884;2022-07-04T07:00:37;5.80;;;5.60;;
54815;SDS011;40715;55.752;37.884;2022-07-04T07:03:05;5.28;;;5.07;;
54815;SDS011;40715;55.752;37.884;2022-07-04T07:05:32;5.00;;;4.80;;
54815;SDS011;40715;55.752;37.884;2022-07-04T07:08:23;6.00;;;5.80;;
54815;SDS011;40715;55.752;37.884;2022-07-04T07:10:50;7.60;;;7.30;;
54815;SDS011;40715;55.752;37.884;2022-07-04T07:13:17;8.75;;;8.35;;
54815;SDS011;40715;55.752;37.884;2022-07-04T07:15:44;8.90;;;8.50;;
54815;SDS011;40715;55.752;37.884;2022-07-04T07:18:11;10.57;;;10.07;;
54815;SDS011;40715;55.752;37.884;2022-07-04T07:20:38;11.32;;;10.82;;
54815;SDS011;40715;55.752;37.884;2022-07-04T07:23:05;11.40;;;10.90;;
54815;SDS011;40715;55.752;37.884;2022-07-04T07:25:32;10.07;;;9.68;;
54815;SDS011;40715;55.752;37.884;2022-07-04T07:27:59;8.18;;;7.88;;
54815;SDS011;40715;55.752;37.884;2022-07-04T07:30:26;6.88;;;6.57;;
54815;SDS011;40715;55.752;37.884;2022-07-04T07:32:53;5.10;;;4.90;;
54815;SDS011;40715;55.752;37.884;2022-07-04T07:35:20;4.95;;;4.75;;
54815;SDS011;40715;55.752;37.884;2022-07-04T07:37:48;5.45;;;5.25;;
54815;SDS011;40715;55.752;37.884;2022-07-04T07:40:15;6.97;;;6.68;;
54815;SDS011;40715;55.752;37.884;2022-07-04T07:42:42;9.32;;;8.93;;
54815;SDS011;40715;55.752;37.884;2022-07-04T07:45:09;13.10;;;12.50;;
54815;SDS011;40715;55.752;37.884;2022-07-04T07:47:36;18.00;;;17.20;;
54815;SDS011;40715;55.752;37.884;2022-07-04T07:50:04;24.50;;;23.40;;
54815;SDS011;40715;55.752;37.884;2022-07-04T07:52:32;28.38;;;27.17;;
54815;SDS011;40715;55.752;37.884;2022-07-04T07:54:59;31.00;;;29.67;;
54815;SDS011;40715;55.752;37.884;2022-07-04T07:57:29;34.95;;;33.45;;
54815;SDS011;40715;55.752;37.884;2022-07-04T07:59:56;36.05;;;34.45;;
54815;SDS011;40715;55.752;37.884;2022-07-04T08:02:23;31.80;;;30.40;;
54815;SDS011;40715;55.752;37.884;2022-07-04T08:05:11;33.42;;;31.98;;
54815;SDS011;40715;55.752;37.884;2022-07-04T08:07:39;39.40;;;37.70;;
54815;SDS011;40715;55.752;37.884;2022-07-04T08:10:06;42.08;;;40.28;;
54815;SDS011;40715;55.752;37.884;2022-07-04T08:12:35;37.65;;;36.05;;
54815;SDS011;40715;55.752;37.884;2022-07-04T08:15:02;32.40;;;31.00;;
54815;SDS011;40715;55.752;37.884;2022-07-04T08:17:32;33.05;;;31.65;;
54815;SDS011;40715;55.752;37.884;2022-07-04T08:20:00;40.47;;;38.72;;
54815;SDS011;40715;55.752;37.884;2022-07-04T08:22:29;49.75;;;47.63;;
54815;SDS011;40715;55.752;37.884;2022-07-04T08:24:56;56.33;;;53.90;;
54815;SDS011;40715;55.752;37.884;2022-07-04T08:27:23;62.88;;;60.17;;
54815;SDS011;40715;55.752;37.884;2022-07-04T08:29:57;70.38;;;67.38;;
54815;SDS011;40715;55.752;37.884;2022-07-04T08:32:25;76.68;;;73.45;;
54815;SDS011;40715;55.752;37.884;2022-07-04T08:34:52;84.18;;;80.68;;
54815;SDS011;40715;55.752;37.884;2022-07-04T08:37:21;70.63;;;67.63;;
54815;SDS011;40715;55.752;37.884;2022-07-04T08:39:49;51.30;;;49.10;;
54815;SDS011;40715;55.752;37.884;2022-07-04T08:42:17;40.03;;;38.33;;
54815;SDS011;40715;55.752;37.884;2022-07-04T08:44:47;36.08;;;34.50;;
54815;SDS011;40715;55.752;37.884;2022-07-04T08:47:19;38.85;;;37.15;;
54815;SDS011;40715;55.752;37.884;2022-07-04T08:52:23;39.20;;;37.50;;
54815;SDS011;40715;55.752;37.884;2022-07-04T08:55:01;47.72;;;45.65;;
54815;SDS011;40715;55.752;37.884;2022-07-04T08:57:47;61.75;;;59.08;;
54815;SDS011;40715;55.752;37.884;2022-07-04T09:00:34;69.72;;;66.75;;
54815;SDS011;40715;55.752;37.884;2022-07-04T09:03:02;85.57;;;81.97;;
54815;SDS011;40715;55.752;37.884;2022-07-04T09:05:31;101.68;;;97.47;;
54815;SDS011;40715;55.752;37.884;2022-07-04T09:07:59;112.55;;;107.95;;
54815;SDS011;40715;55.752;37.884;2022-07-04T09:10:28;127.57;;;122.38;;
54815;SDS011;40715;55.752;37.884;2022-07-04T09:12:55;130.60;;;125.28;;
54815;SDS011;40715;55.752;37.884;2022-07-04T09:15:36;140.32;;;134.63;;
54815;SDS011;40715;55.752;37.884;2022-07-04T09:18:04;133.77;;;128.32;;
54815;SDS011;40715;55.752;37.884;2022-07-04T09:20:32;141.68;;;135.93;;
54815;SDS011;40715;55.752;37.884;2022-07-04T09:23:00;139.10;;;133.45;;
54815;SDS011;40715;55.752;37.884;2022-07-04T09:25:27;126.32;;;121.15;;
54815;SDS011;40715;55.752;37.884;2022-07-04T09:27:55;110.20;;;105.70;;
54815;SDS011;40715;55.752;37.884;2022-07-04T09:30:24;96.70;;;92.70;;
54815;SDS011;40715;55.752;37.884;2022-07-04T09:32:53;94.68;;;90.78;;
54815;SDS011;40715;55.752;37.884;2022-07-04T09:35:30;89.50;;;85.78;;
54815;SDS011;40715;55.752;37.884;2022-07-04T09:38:00;75.72;;;72.53;;
54815;SDS011;40715;55.752;37.884;2022-07-04T09:40:32;46.22;;;44.22;;
54815;SDS011;40715;55.752;37.884;2022-07-04T09:43:00;25.67;;;24.58;;
54815;SDS011;40715;55.752;37.884;2022-07-04T09:45:52;15.52;;;14.82;;
54815;SDS011;40715;55.752;37.884;2022-07-04T09:48:23;12.70;;;12.13;;
54815;SDS011;40715;55.752;37.884;2022-07-04T09:50:51;13.75;;;13.15;;
54815;SDS011;40715;55.752;37.884;2022-07-04T09:53:24;16.08;;;15.38;;
54815;SDS011;40715;55.752;37.884;2022-07-04T09:55:54;16.40;;;15.70;;
54815;SDS011;40715;55.752;37.884;2022-07-04T09:58:21;15.73;;;15.02;;
54815;SDS011;40715;55.752;37.884;2022-07-04T10:00:48;17.20;;;16.40;;
54815;SDS011;40715;55.752;37.884;2022-07-04T10:03:22;17.75;;;16.95;;
54815;SDS011;40715;55.752;37.884;2022-07-04T10:08:52;19.65;;;18.75;;
54815;SDS011;40715;55.752;37.884;2022-07-04T10:11:19;18.08;;;17.27;;
54815;SDS011;40715;55.752;37.884;2022-07-04T10:14:00;9.73;;;9.32;;
54815;SDS011;40715;55.752;37.884;2022-07-04T10:16:27;5.50;;;5.30;;
54815;SDS011;40715;55.752;37.884;2022-07-04T10:18:57;2.97;;;2.88;;
54815;SDS011;40715;55.752;37.884;2022-07-04T10:21:24;1.58;;;1.58;;
54815;SDS011;40715;55.752;37.884;2022-07-04T10:23:52;1.20;;;1.20;;
54815;SDS011;40715;55.752;37.884;2022-07-04T10:26:20;0.80;;;0.80;;
54815;SDS011;40715;55.752;37.884;2022-07-04T10:28:50;0.60;;;0.60;;
54815;SDS011;40715;55.752;37.884;2022-07-04T10:31:19;0.40;;;0.40;;
54815;SDS011;40715;55.752;37.884;2022-07-04T10:33:48;0.30;;;0.30;;
54815;SDS011;40715;55.752;37.884;2022-07-04T10:36:17;0.30;;;0.30;;
54815;SDS011;40715;55.752;37.884;2022-07-04T10:41:17;0.20;;;0.20;;
54815;SDS011;40715;55.752;37.884;2022-07-04T10:51:44;0.10;;;0.10;;
54815;SDS011;40715;55.752;37.884;2022-07-04T10:54:14;0.10;;;0.10;;
54815;SDS011;40715;55.752;37.884;2022-07-04T10:56:49;0.08;;;0.08;;
54815;SDS011;40715;55.752;37.884;2022-07-04T10:59:26;0.00;;;0.00;;
54815;SDS011;40715;55.752;37.884;2022-07-04T11:05:05;0.10;;;0.10;;
54815;SDS011;40715;55.752;37.884;2022-07-04T11:17:55;0.00;;;0.00;;
54815;SDS011;40715;55.752;37.884;2022-07-04T11:20:24;0.00;;;0.00;;
54815;SDS011;40715;55.752;37.884;2022-07-04T11:22:52;0.10;;;0.10;;
54815;SDS011;40715;55.752;37.884;2022-07-04T11:25:20;0.00;;;0.00;;
54815;SDS011;40715;55.752;37.884;2022-07-04T11:27:47;0.00;;;0.00;;
54815;SDS011;40715;55.752;37.884;2022-07-04T11:30:14;0.00;;;0.00;;
54815;SDS011;40715;55.752;37.884;2022-07-04T11:32:41;0.00;;;0.00;;
54815;SDS011;40715;55.752;37.884;2022-07-04T11:35:08;0.03;;;0.03;;
54815;SDS011;40715;55.752;37.884;2022-07-04T11:37:36;0.00;;;0.00;;
54815;SDS011;40715;55.752;37.884;2022-07-04T11:40:03;0.10;;;0.10;;
54815;SDS011;40715;55.752;37.884;2022-07-04T11:43:07;0.00;;;0.00;;
54815;SDS011;40715;55.752;37.884;2022-07-04T11:45:53;0.10;;;0.10;;
54815;SDS011;40715;55.752;37.884;2022-07-04T11:48:24;0.00;;;0.00;;
54815;SDS011;40715;55.752;37.884;2022-07-04T11:50:53;0.10;;;0.10;;
54815;SDS011;40715;55.752;37.884;2022-07-04T11:53:20;0.00;;;0.00;;
54815;SDS011;40715;55.752;37.884;2022-07-04T11:55:54;0.00;;;0.00;;
54815;SDS011;40715;55.752;37.884;2022-07-04T11:58:38;0.10;;;0.10;;
54815;SDS011;40715;55.752;37.884;2022-07-04T12:01:09;0.00;;;0.00;;
54815;SDS011;40715;55.752;37.884;2022-07-04T12:03:38;0.00;;;0.00;;
54815;SDS011;40715;55.752;37.884;2022-07-04T12:06:06;0.00;;;0.00;;
54815;SDS011;40715;55.752;37.884;2022-07-04T12:08:36;0.00;;;0.00;;
54815;SDS011;40715;55.752;37.884;2022-07-04T12:11:03;0.00;;;0.00;;
54815;SDS011;40715;55.752;37.884;2022-07-04T12:13:30;0.00;;;0.00;;
54815;SDS011;40715;55.752;37.884;2022-07-04T12:15:57;0.10;;;0.10;;
54815;SDS011;40715;55.752;37.884;2022-07-04T12:18:26;0.10;;;0.10;;
54815;SDS011;40715;55.752;37.884;2022-07-04T12:21:09;0.00;;;0.00;;
54815;SDS011;40715;55.752;37.884;2022-07-04T12:23:53;0.00;;;0.00;;
54815;SDS011;40715;55.752;37.884;2022-07-04T12:26:46;0.00;;;0.00;;
54815;SDS011;40715;55.752;37.884;2022-07-04T12:29:21;0.05;;;0.05;;
54815;SDS011;40715;55.752;37.884;2022-07-04T12:31:57;0.03;;;0.03;;
54815;SDS011;40715;55.752;37.884;2022-07-04T12:34:24;0.10;;;0.10;;
54815;SDS011;40715;55.752;37.884;2022-07-04T12:36:52;0.00;;;0.00;;
54815;SDS011;40715;55.752;37.884;2022-07-04T12:39:32;0.08;;;0.08;;
54815;SDS011;40715;55.752;37.884;2022-07-04T12:42:08;0.10;;;0.10;;
54815;SDS011;40715;55.752;37.884;2022-07-04T12:44:39;0.00;;;0.00;;
54815;SDS011;40715;55.752;37.884;2022-07-04T12:47:07;0.00;;;0.00;;
54815;SDS011;40715;55.752;37.884;2022-07-04T12:49:42;0.00;;;0.00;;
54815;SDS011;40715;55.752;37.884;2022-07-04T12:52:15;0.00;;;0.00;;
54815;SDS011;40715;55.752;37.884;2022-07-04T12:54:43;0.00;;;0.00;;
54815;SDS011;40715;55.752;37.884;2022-07-04T12:57:14;0.00;;;0.00;;
54815;SDS011;40715;55.752;37.884;2022-07-04T12:59:42;0.00;;;0.00;;
54815;SDS011;40715;55.752;37.884;2022-07-04T13:02:10;0.00;;;0.00;;
54815;SDS011;40715;55.752;37.884;2022-07-04T13:04:38;0.00;;;0.00;;
54815;SDS011;40715;55.752;37.884;2022-07-04T13:07:16;0.10;;;0.10;;
54815;SDS011;40715;55.752;37.884;2022-07-04T13:09:44;0.00;;;0.00;;
54815;SDS011;40715;55.752;37.884;2022-07-04T13:12:15;0.00;;;0.00;;
54815;SDS011;40715;55.752;37.884;2022-07-04T13:14:51;0.00;;;0.00;;
54815;SDS011;40715;55.752;37.884;2022-07-04T13:17:19;0.00;;;0.00;;
54815;SDS011;40715;55.752;37.884;2022-07-04T13:19:47;0.00;;;0.00;;
54815;SDS011;40715;55.752;37.884;2022-07-04T13:22:14;0.00;;;0.00;;
54815;SDS011;40715;55.752;37.884;2022-07-04T13:24:41;0.00;;;0.00;;
54815;SDS011;40715;55.752;37.884;2022-07-04T13:27:08;0.00;;;0.00;;
54815;SDS011;40715;55.752;37.884;2022-07-04T13:29:35;0.00;;;0.00;;
54815;SDS011;40715;55.752;37.884;2022-07-04T13:32:03;0.10;;;0.10;;
54815;SDS011;40715;55.752;37.884;2022-07-04T13:34:37;0.00;;;0.00;;
54815;SDS011;40715;55.752;37.884;2022-07-04T13:37:04;0.00;;;0.00;;
54815;SDS011;40715;55.752;37.884;2022-07-04T13:39:32;0.00;;;0.00;;
54815;SDS011;40715;55.752;37.884;2022-07-04T13:42:15;0.00;;;0.00;;
54815;SDS011;40715;55.752;37.884;2022-07-04T13:47:30;0.00;;;0.00;;
54815;SDS011;40715;55.752;37.884;2022-07-04T13:49:57;0.00;;;0.00;;
54815;SDS011;40715;55.752;37.884;2022-07-04T13:52:24;0.00;;;0.00;;
54815;SDS011;40715;55.752;37.884;2022-07-04T13:54:51;0.00;;;0.00;;
54815;SDS011;40715;55.752;37.884;2022-07-04T13:57:18;0.00;;;0.00;;
54815;SDS011;40715;55.752;37.884;2022-07-04T13:59:45;0.00;;;0.00;;
54815;SDS011;40715;55.752;37.884;2022-07-04T14:02:12;0.03;;;0.00;;
54815;SDS011;40715;55.752;37.884;2022-07-04T14:04:40;0.00;;;0.00;;
54815;SDS011;40715;55.752;37.884;2022-07-04T14:07:07;0.00;;;0.00;;
54815;SDS011;40715;55.752;37.884;2022-07-04T14:09:40;0.00;;;0.00;;
54815;SDS011;40715;55.752;37.884;2022-07-04T14:12:08;0.10;;;0.00;;
54815;SDS011;40715;55.752;37.884;2022-07-04T14:14:36;0.00;;;0.00;;
54815;SDS011;40715;55.752;37.884;2022-07-04T14:17:03;0.00;;;0.00;;
54815;SDS011;40715;55.752;37.884;2022-07-04T14:19:50;0.00;;;0.00;;
54815;SDS011;40715;55.752;37.884;2022-07-04T14:22:17;0.00;;;0.00;;
54815;SDS011;40715;55.752;37.884;2022-07-04T14:24:44;0.00;;;0.00;;
54815;SDS011;40715;55.752;37.884;2022-07-04T14:27:11;0.00;;;0.00;;
54815;SDS011;40715;55.752;37.884;2022-07-04T14:29:38;0.00;;;0.00;;
54815;SDS011;40715;55.752;37.884;2022-07-04T14:32:08;0.00;;;0.00;;
54815;SDS011;40715;55.752;37.884;2022-07-04T14:34:35;0.00;;;0.00;;
54815;SDS011;40715;55.752;37.884;2022-07-04T14:37:02;0.00;;;0.00;;
54815;SDS011;40715;55.752;37.884;2022-07-04T14:39:30;0.00;;;0.00;;
54815;SDS011;40715;55.752;37.884;2022-07-04T14:41:57;0.00;;;0.00;;
54815;SDS011;40715;55.752;37.884;2022-07-04T14:44:24;0.00;;;0.00;;
54815;SDS011;40715;55.752;37.884;2022-07-04T14:46:51;0.00;;;0.00;;
54815;SDS011;40715;55.752;37.884;2022-07-04T14:49:18;0.00;;;0.00;;
54815;SDS011;40715;55.752;37.884;2022-07-04T14:51:45;0.00;;;0.00;;
54815;SDS011;40715;55.752;37.884;2022-07-04T14:54:12;0.00;;;0.00;;
54815;SDS011;40715;55.752;37.884;2022-07-04T14:56:39;0.00;;;0.00;;
54815;SDS011;40715;55.752;37.884;2022-07-04T14:59:07;0.00;;;0.00;;
54815;SDS011;40715;55.752;37.884;2022-07-04T15:01:34;0.10;;;0.00;;
54815;SDS011;40715;55.752;37.884;2022-07-04T15:04:01;0.00;;;0.00;;
54815;SDS011;40715;55.752;37.884;2022-07-04T15:06:28;0.00;;;0.00;;
54815;SDS011;40715;55.752;37.884;2022-07-04T15:08:55;0.00;;;0.00;;